Time;durP1;ratioP1;P1;durP2;ratioP2;P2;SDS_P1;SDS_P2;PMS_P1;PMS_P2;Temp;Humidity;BMP_temperature;BMP_pressure;BME280_temperature;BME280_humidity;BME280_pressure;Samples;Min_cycle;Max_cycle;Signal;HPM_P1;HPM_P2
2022/03/07 00:01:47;;;;;;;22.77;10.35;;;;;;;-1.06;100.00;102426.06;5054767;28;20484;-80
2022/03/07 00:04:17;;;;;;;22.60;10.65;;;;;;;-1.14;100.00;102417.16;5057009;28;20037;-80
2022/03/07 00:06:43;;;;;;;26.23;11.60;;;;;;;-1.18;100.00;102413.59;5058858;28;20013;-80
2022/03/07 00:09:09;;;;;;;22.17;11.32;;;;;;;-1.25;100.00;102417.19;5059049;28;20036;-81
2022/03/07 00:11:35;;;;;;;20.50;10.10;;;;;;;-1.28;100.00;102422.56;5075925;28;20071;-81
2022/03/07 00:14:01;;;;;;;20.30;11.07;;;;;;;-1.39;100.00;102403.84;5055167;28;20038;-81
2022/03/07 00:16:27;;;;;;;21.35;10.38;;;;;;;-1.35;100.00;102421.72;5071743;28;20033;-81
2022/03/07 00:18:53;;;;;;;20.88;10.77;;;;;;;-1.39;100.00;102419.97;5076843;28;20048;-81
2022/03/07 00:21:20;;;;;;;22.77;10.82;;;;;;;-1.41;100.00;102426.22;5075733;28;20029;-80
2022/03/07 00:23:46;;;;;;;24.73;11.48;;;;;;;-1.55;100.00;102415.53;5062290;28;20104;-82
2022/03/07 00:26:11;;;;;;;21.85;10.15;;;;;;;-1.50;100.00;102409.25;5038735;28;20025;-81
2022/03/07 00:28:37;;;;;;;25.23;10.45;;;;;;;-1.34;100.00;102419.94;5043310;28;20715;-81
2022/03/07 00:31:05;;;;;;;15.48;9.50;;;;;;;-1.33;100.00;102425.31;5050390;28;20115;-81
2022/03/07 00:33:30;;;;;;;18.00;10.07;;;;;;;-1.39;100.00;102408.31;5077159;28;20099;-81
2022/03/07 00:35:56;;;;;;;18.73;10.32;;;;;;;-1.32;100.00;102423.50;5061334;28;20063;-81
2022/03/07 00:38:22;;;;;;;18.83;10.10;;;;;;;-1.34;100.00;102423.50;5062110;28;20495;-81
2022/03/07 00:40:47;;;;;;;19.42;10.45;;;;;;;-1.33;100.00;102421.72;5059897;28;20033;-82
2022/03/07 00:43:13;;;;;;;21.75;10.60;;;;;;;-1.35;100.00;102410.97;5081144;28;20040;-82
2022/03/07 00:45:38;;;;;;;19.67;9.90;;;;;;;-1.37;100.00;102415.47;5058985;28;20108;-81
2022/03/07 00:48:04;;;;;;;20.90;10.35;;;;;;;-1.35;100.00;102423.50;5057166;28;20037;-82
2022/03/07 00:50:30;;;;;;;17.42;10.45;;;;;;;-1.41;100.00;102427.13;5076113;28;20097;-82
2022/03/07 00:52:56;;;;;;;16.67;10.00;;;;;;;-1.56;100.00;102421.78;5076318;28;20025;-82
2022/03/07 00:55:22;;;;;;;22.40;10.55;;;;;;;-1.69;100.00;102432.59;5070782;28;20110;-82
2022/03/07 00:57:48;;;;;;;22.58;11.65;;;;;;;-1.75;100.00;102421.88;5063197;28;20028;-81
2022/03/07 01:00:13;;;;;;;18.77;10.18;;;;;;;-1.74;100.00;102423.66;5046831;28;20036;-82
2022/03/07 01:02:39;;;;;;;20.67;10.13;;;;;;;-1.71;100.00;102418.25;5064680;28;20055;-81
2022/03/07 01:05:06;;;;;;;20.83;10.18;;;;;;;-1.71;100.00;102426.31;5063537;28;20032;-82
2022/03/07 01:07:31;;;;;;;22.08;11.85;;;;;;;-1.75;100.00;102420.97;5055991;28;20025;-82
2022/03/07 01:09:57;;;;;;;19.67;10.40;;;;;;;-1.76;100.00;102425.44;5045021;28;20031;-81
2022/03/07 01:12:22;;;;;;;20.38;11.90;;;;;;;-1.65;100.00;102433.47;5079857;28;20033;-82
2022/03/07 01:14:49;;;;;;;19.55;11.18;;;;;;;-1.76;100.00;102424.53;5065071;28;20025;-81
2022/03/07 01:17:14;;;;;;;21.40;10.60;;;;;;;-1.86;100.00;102423.69;5063330;28;20037;-81
2022/03/07 01:19:40;;;;;;;25.50;12.30;;;;;;;-1.83;100.00;102425.47;5066719;28;20024;-82
2022/03/07 01:22:06;;;;;;;20.77;10.77;;;;;;;-1.80;100.00;102431.72;5073205;28;20032;-82
2022/03/07 01:24:31;;;;;;;20.98;10.95;;;;;;;-1.85;100.00;102429.03;5077298;28;20038;-81
2022/03/07 01:26:57;;;;;;;19.15;11.18;;;;;;;-1.87;100.00;102428.16;5079701;28;20127;-83
2022/03/07 01:29:23;;;;;;;21.15;10.82;;;;;;;-1.83;100.00;102414.72;5061002;28;20406;-82
2022/03/07 01:31:48;;;;;;;21.90;11.38;;;;;;;-1.84;100.00;102427.25;5062262;28;20028;-83
2022/03/07 01:34:14;;;;;;;22.58;12.05;;;;;;;-1.86;100.00;102413.81;5057345;28;20473;-83
2022/03/07 01:36:40;;;;;;;17.83;10.25;;;;;;;-1.80;100.00;102422.75;5024410;28;20473;-83
2022/03/07 01:39:05;;;;;;;22.60;10.57;;;;;;;-1.85;100.00;102430.84;5066698;28;20029;-82
2022/03/07 01:41:31;;;;;;;17.88;10.50;;;;;;;-1.83;100.00;102429.03;5060674;28;20051;-83
2022/03/07 01:43:56;;;;;;;20.88;11.32;;;;;;;-1.96;100.00;102429.97;5043503;28;20025;-83
2022/03/07 01:46:22;;;;;;;20.08;11.07;;;;;;;-1.94;100.00;102425.47;5069403;28;20029;-83
2022/03/07 01:48:48;;;;;;;23.80;12.65;;;;;;;-2.02;100.00;102422.78;5061293;28;20337;-82
2022/03/07 01:51:16;;;;;;;29.20;11.75;;;;;;;-2.13;100.00;102403.13;5077144;28;20021;-82
2022/03/07 01:53:42;;;;;;;24.77;12.60;;;;;;;-1.94;100.00;102425.47;5048967;28;20459;-83
2022/03/07 01:56:08;;;;;;;22.83;11.75;;;;;;;-1.91;100.00;102414.75;5068263;28;20485;-83
2022/03/07 01:58:35;;;;;;;23.33;11.90;;;;;;;-1.95;100.00;102407.56;5062366;28;20032;-83
2022/03/07 02:01:00;;;;;;;24.35;12.00;;;;;;;-1.88;100.00;102415.63;5061881;28;20028;-83
2022/03/07 02:03:26;;;;;;;22.48;13.32;;;;;;;-1.86;100.00;102421.00;5060411;28;20043;-83
2022/03/07 02:05:51;;;;;;;27.63;12.32;;;;;;;-1.93;100.00;102409.38;5043709;28;20384;-83
2022/03/07 02:08:17;;;;;;;20.95;12.27;;;;;;;-2.00;100.00;102418.34;5043830;28;20048;-83
2022/03/07 02:10:43;;;;;;;23.80;13.23;;;;;;;-2.08;100.00;102425.50;5059275;28;20033;-83
2022/03/07 02:13:17;;;;;;;18.95;11.57;;;;;;;-2.21;100.00;102419.25;5062436;28;20395;-83
2022/03/07 02:15:43;;;;;;;24.85;13.02;;;;;;;-2.25;100.00;102430.88;5081814;28;20036;-83
2022/03/07 02:18:08;;;;;;;23.77;13.20;;;;;;;-2.37;100.00;102415.69;5096513;28;20036;-83
2022/03/07 02:20:34;;;;;;;27.52;12.93;;;;;;;-2.22;100.00;102421.03;5043495;28;20136;-83
2022/03/07 02:22:59;;;;;;;23.65;13.10;;;;;;;-2.27;100.00;102417.47;5059976;28;20025;-83
2022/03/07 02:25:25;;;;;;;22.27;12.18;;;;;;;-2.24;100.00;102422.81;5057231;28;20031;-83
2022/03/07 02:27:51;;;;;;;26.10;12.05;;;;;;;-2.32;100.00;102407.63;5076231;28;20037;-83
2022/03/07 02:30:16;;;;;;;27.55;12.77;;;;;;;-2.28;100.00;102414.78;5043404;28;20473;-83
2022/03/07 02:32:43;;;;;;;26.67;12.85;;;;;;;-2.20;100.00;102415.66;5069464;28;20485;-83
2022/03/07 02:35:13;;;;;;;24.60;11.85;;;;;;;-2.23;100.00;102424.63;5047132;28;20036;-83
2022/03/07 02:37:39;;;;;;;23.35;13.00;;;;;;;-2.33;100.00;102417.44;5052196;28;20033;-81
2022/03/07 02:40:05;;;;;;;23.65;12.50;;;;;;;-2.45;100.00;102417.47;5040372;28;20037;-82
2022/03/07 02:42:31;;;;;;;25.13;12.57;;;;;;;-2.50;100.00;102416.59;5034429;28;20033;-82
2022/03/07 02:44:56;;;;;;;25.52;12.10;;;;;;;-2.52;100.00;102421.94;5059818;28;20510;-84
2022/03/07 02:47:23;;;;;;;26.10;13.68;;;;;;;-2.58;100.00;102413.88;5071719;28;20443;-80
2022/03/07 02:49:51;;;;;;;23.85;13.27;;;;;;;-2.59;100.00;102422.84;5037003;28;20033;-82
2022/03/07 02:52:17;;;;;;;32.40;13.43;;;;;;;-2.66;100.00;102400.47;5038986;28;20116;-84
2022/03/07 02:54:42;;;;;;;30.55;13.25;;;;;;;-2.61;100.00;102411.19;5040993;28;20063;-82
2022/03/07 02:57:08;;;;;;;26.00;12.70;;;;;;;-2.62;100.00;102420.16;5085034;28;20037;-82
2022/03/07 02:59:34;;;;;;;33.03;14.57;;;;;;;-2.70;100.00;102403.16;5048073;28;20056;-82
2022/03/07 03:02:00;;;;;;;34.00;14.35;;;;;;;-2.53;100.00;102409.41;5076108;28;20040;-82
2022/03/07 03:04:25;;;;;;;27.75;13.90;;;;;;;-2.53;100.00;102409.41;5064390;28;20080;-81
2022/03/07 03:06:51;;;;;;;23.98;12.68;;;;;;;-2.59;100.00;102404.97;5039874;28;20099;-80
2022/03/07 03:09:16;;;;;;;27.38;14.27;;;;;;;-2.43;100.00;102402.25;5084242;28;20035;-83
2022/03/07 03:11:42;;;;;;;26.63;13.02;;;;;;;-2.43;100.00;102413.00;5039479;28;20072;-83
2022/03/07 03:14:07;;;;;;;26.00;14.18;;;;;;;-2.41;100.00;102412.13;5052880;28;20037;-82
2022/03/07 03:16:33;;;;;;;29.67;14.15;;;;;;;-2.53;100.00;102396.00;5066716;28;20056;-83
2022/03/07 03:18:58;;;;;;;28.65;14.38;;;;;;;-2.48;100.00;102407.63;5044105;28;20038;-82
2022/03/07 03:21:24;;;;;;;27.83;14.30;;;;;;;-2.50;100.00;102412.09;5033913;28;20029;-83
2022/03/07 03:23:49;;;;;;;30.58;14.85;;;;;;;-2.62;100.00;102401.38;5057025;28;20043;-83
2022/03/07 03:26:15;;;;;;;27.80;14.45;;;;;;;-2.69;100.00;102404.94;5030725;28;20112;-82
2022/03/07 03:28:41;;;;;;;33.22;14.15;;;;;;;-2.65;100.00;102409.44;5057923;28;20017;-82
2022/03/07 03:31:11;;;;;;;26.08;13.88;;;;;;;-2.71;100.00;102418.34;5060232;28;20668;-82
2022/03/07 03:33:37;;;;;;;27.02;13.93;;;;;;;-2.64;100.00;102422.84;5068654;28;20055;-83
2022/03/07 03:36:02;;;;;;;31.65;13.50;;;;;;;-2.69;100.00;102415.66;5063195;28;20108;-83
2022/03/07 03:38:28;;;;;;;29.30;13.93;;;;;;;-2.70;100.00;102406.72;5030737;28;20056;-83
2022/03/07 03:40:53;;;;;;;33.35;15.13;;;;;;;-2.68;100.00;102404.06;5040072;28;20083;-82
2022/03/07 03:43:18;;;;;;;32.03;14.75;;;;;;;-2.61;100.00;102417.47;5036710;28;20044;-84
2022/03/07 03:45:44;;;;;;;25.85;13.93;;;;;;;-2.64;100.00;102411.19;5059821;28;20035;-83
2022/03/07 03:48:09;;;;;;;27.70;13.50;;;;;;;-2.66;100.00;102403.16;5056589;28;20111;-83
2022/03/07 03:50:35;;;;;;;27.83;14.73;;;;;;;-2.69;100.00;102402.25;5021432;28;20145;-84
2022/03/07 03:53:00;;;;;;;30.63;14.88;;;;;;;-2.72;100.00;102418.34;5052458;28;20091;-83
2022/03/07 03:55:26;;;;;;;32.67;15.10;;;;;;;-2.59;100.00;102415.69;5037858;28;20018;-83
2022/03/07 03:57:51;;;;;;;25.83;14.68;;;;;;;-2.66;100.00;102407.63;5021275;28;20026;-83
2022/03/07 04:00:18;;;;;;;26.42;14.93;;;;;;;-2.64;100.00;102404.06;5042056;28;20449;-82
2022/03/07 04:02:46;;;;;;;28.60;15.00;;;;;;;-2.63;100.00;102421.03;5079758;28;20028;-82
2022/03/07 04:05:13;;;;;;;31.70;15.30;;;;;;;-2.64;100.00;102417.47;5054198;28;20026;-83
2022/03/07 04:07:40;;;;;;;31.27;15.15;;;;;;;-2.70;100.00;102424.63;5045057;28;20017;-83
2022/03/07 04:10:07;;;;;;;33.47;15.45;;;;;;;-2.78;100.00;102422.78;5037645;28;20049;-84
2022/03/07 04:12:33;;;;;;;34.53;15.18;;;;;;;-2.88;100.00;102410.28;5049353;28;20040;-82
2022/03/07 04:14:59;;;;;;;36.85;16.33;;;;;;;-2.76;100.00;102422.78;5058179;28;20384;-83
2022/03/07 04:17:24;;;;;;;32.22;15.65;;;;;;;-2.87;100.00;102414.75;5070707;28;20131;-83
2022/03/07 04:19:51;;;;;;;31.27;16.02;;;;;;;-2.87;100.00;102420.13;5059678;28;20024;-82
2022/03/07 04:22:16;;;;;;;39.30;17.80;;;;;;;-2.73;100.00;102430.84;5051287;28;20029;-82
2022/03/07 04:24:42;;;;;;;35.85;15.48;;;;;;;-2.96;100.00;102394.19;5070206;28;20457;-82
2022/03/07 04:27:07;;;;;;;38.83;17.33;;;;;;;-2.67;100.00;102433.53;5078481;28;20045;-82
2022/03/07 04:29:33;;;;;;;40.97;16.92;;;;;;;-2.78;100.00;102422.78;5061574;28;20040;-83
2022/03/07 04:31:58;;;;;;;34.92;16.90;;;;;;;-2.84;100.00;102425.47;5064965;28;20025;-83
2022/03/07 04:34:24;;;;;;;42.05;16.70;;;;;;;-2.71;100.00;102436.22;5079196;28;20028;-83
2022/03/07 04:36:50;;;;;;;37.42;16.75;;;;;;;-2.76;100.00;102422.78;5077740;28;20491;-83
2022/03/07 04:39:15;;;;;;;34.17;16.05;;;;;;;-2.85;100.00;102394.22;5063526;28;20020;-82
2022/03/07 04:41:40;;;;;;;32.60;15.90;;;;;;;-2.65;100.00;102421.03;5049541;28;20025;-84
2022/03/07 04:44:06;;;;;;;33.88;17.30;;;;;;;-2.68;100.00;102415.66;5083999;28;21700;-83
2022/03/07 04:46:32;;;;;;;36.15;17.25;;;;;;;-2.62;100.00;102423.72;5058458;28;20485;-82
2022/03/07 04:48:58;;;;;;;41.92;17.60;;;;;;;-2.66;100.00;102426.38;5059692;28;20056;-82
2022/03/07 04:51:24;;;;;;;38.05;18.40;;;;;;;-2.68;100.00;102422.81;5041367;28;20036;-83
2022/03/07 04:53:49;;;;;;;33.38;17.70;;;;;;;-2.70;100.00;102427.28;5055993;28;20041;-83
2022/03/07 04:56:15;;;;;;;41.10;19.10;;;;;;;-2.72;100.00;102421.94;5058009;28;20029;-83
2022/03/07 04:58:40;;;;;;;46.47;18.55;;;;;;;-2.66;100.00;102429.06;5067904;28;20037;-83
2022/03/07 05:01:06;;;;;;;41.58;18.90;;;;;;;-2.71;100.00;102430.84;5035970;28;20480;-83
2022/03/07 05:03:31;;;;;;;49.92;20.63;;;;;;;-2.60;100.00;102419.25;5076959;28;20419;-83
2022/03/07 05:05:57;;;;;;;44.88;18.63;;;;;;;-2.68;100.00;102428.19;5051235;28;20036;-84
2022/03/07 05:08:22;;;;;;;45.88;18.70;;;;;;;-2.63;100.00;102423.72;5066637;28;20041;-84
2022/03/07 05:10:48;;;;;;;58.00;20.48;;;;;;;-2.70;100.00;102421.94;5059855;28;20037;-83
2022/03/07 05:13:14;;;;;;;49.63;20.33;;;;;;;-2.77;100.00;102424.59;5055533;28;20174;-83
2022/03/07 05:15:40;;;;;;;43.85;19.48;;;;;;;-2.69;100.00;102429.97;5053299;28;20170;-84
2022/03/07 05:18:05;;;;;;;48.88;21.50;;;;;;;-2.67;100.00;102427.28;5081995;28;20441;-82
2022/03/07 05:20:31;;;;;;;49.55;19.92;;;;;;;-2.85;100.00;102409.41;5067738;28;20029;-82
2022/03/07 05:22:56;;;;;;;43.90;19.27;;;;;;;-2.82;100.00;102410.28;5068515;28;20032;-83
2022/03/07 05:25:22;;;;;;;50.00;21.13;;;;;;;-2.91;100.00;102415.63;5066834;28;20037;-84
2022/03/07 05:27:49;;;;;;;50.30;22.08;;;;;;;-2.87;100.00;102425.47;5070558;28;20040;-83
2022/03/07 05:30:17;;;;;;;58.42;22.92;;;;;;;-2.84;100.00;102414.72;5063163;28;20025;-83
2022/03/07 05:32:50;;;;;;;51.10;21.55;;;;;;;-2.84;100.00;102417.41;5060201;28;20040;-82
2022/03/07 05:35:17;;;;;;;;;;;;;;;-2.85;100.00;102412.97;5063474;28;20400;-83
2022/03/07 05:37:42;;;;;;;48.63;20.08;;;;;;;-2.81;100.00;102393.31;5050330;28;19920;-83
2022/03/07 05:40:10;;;;;;;54.30;21.48;;;;;;;-2.89;100.00;102412.94;5041676;28;20041;-82
2022/03/07 05:42:36;;;;;;;52.75;21.10;;;;;;;-2.80;100.00;102423.72;5044479;28;20044;-83
2022/03/07 05:45:06;;;;;;;62.05;24.08;;;;;;;-2.77;100.00;102432.63;5060530;28;20067;-82
2022/03/07 05:47:31;;;;;;;60.92;24.45;;;;;;;-2.85;100.00;102407.59;5045464;28;20088;-81
2022/03/07 05:49:57;;;;;;;63.47;23.88;;;;;;;-2.70;100.00;102433.53;5057762;28;20029;-83
2022/03/07 05:52:24;;;;;;;63.35;25.17;;;;;;;-2.64;100.00;102428.19;5046273;28;20033;-83
2022/03/07 05:54:49;;;;;;;53.58;22.42;;;;;;;-2.58;100.00;102427.28;5056670;28;20029;-81
2022/03/07 05:57:15;;;;;;;80.90;25.35;;;;;;;-2.55;100.00;102427.28;5051142;28;20048;-83
2022/03/07 05:59:40;;;;;;;62.45;25.20;;;;;;;-2.56;100.00;102422.81;5051764;28;20503;-83
2022/03/07 06:02:06;;;;;;;66.43;25.35;;;;;;;-2.59;100.00;102425.53;5059573;28;20366;-82
2022/03/07 06:04:31;;;;;;;65.13;26.63;;;;;;;-2.52;100.00;102437.16;5034191;28;20033;-82
2022/03/07 06:06:56;;;;;;;55.30;23.60;;;;;;;-2.50;100.00;102432.66;5053809;28;20031;-82
2022/03/07 06:09:23;;;;;;;70.32;24.63;;;;;;;-2.45;100.00;102430.88;5041650;28;20033;-82
2022/03/07 06:11:48;;;;;;;63.38;24.13;;;;;;;-2.40;100.00;102438.00;5044570;28;20028;-82
2022/03/07 06:14:14;;;;;;;63.25;24.38;;;;;;;-2.42;100.00;102428.19;5058643;28;20039;-82
2022/03/07 06:16:39;;;;;;;66.38;25.13;;;;;;;-2.38;100.00;102432.66;5062335;28;20020;-82
2022/03/07 06:19:05;;;;;;;71.60;26.15;;;;;;;-2.33;100.00;102441.59;5051557;28;20033;-82
2022/03/07 06:21:30;;;;;;;68.65;25.80;;;;;;;-2.44;100.00;102435.38;5047576;28;20036;-82
2022/03/07 06:23:56;;;;;;;67.32;25.83;;;;;;;-2.53;100.00;102441.59;5073183;28;20359;-83
2022/03/07 06:26:23;;;;;;;65.72;24.10;;;;;;;-2.40;100.00;102456.78;5037712;28;20024;-82
2022/03/07 06:28:50;;;;;;;71.50;26.60;;;;;;;-2.47;100.00;102462.19;5049627;28;20095;-82
2022/03/07 06:31:17;;;;;;;69.70;25.92;;;;;;;-2.38;100.00;102456.78;5039853;28;20402;-82
2022/03/07 06:33:42;;;;;;;83.95;28.13;;;;;;;-2.43;100.00;102459.50;5054435;28;20102;-82
2022/03/07 06:36:08;;;;;;;71.75;27.42;;;;;;;-2.38;100.00;102463.97;5063993;28;20096;-82
2022/03/07 06:38:35;;;;;;;75.20;28.05;;;;;;;-2.38;100.00;102462.16;5062460;28;20027;-80
2022/03/07 06:41:01;;;;;;;86.68;27.20;;;;;;;-2.30;100.00;102473.78;5052405;28;20033;-82
2022/03/07 06:43:26;;;;;;;88.95;29.20;;;;;;;-2.23;100.00;102469.31;5058990;28;20491;-81
2022/03/07 06:45:53;;;;;;;73.55;27.58;;;;;;;-2.12;100.00;102472.00;5073128;28;20195;-82
2022/03/07 06:48:18;;;;;;;66.78;26.80;;;;;;;-1.98;100.00;102472.91;5064194;28;20044;-81
2022/03/07 06:50:44;;;;;;;85.80;27.13;;;;;;;-2.06;100.00;102475.59;5056799;28;20032;-83
2022/03/07 06:53:09;;;;;;;79.05;28.13;;;;;;;-2.00;100.00;102473.78;5076620;28;20053;-83
2022/03/07 06:55:35;;;;;;;77.40;28.08;;;;;;;-1.86;100.00;102472.88;5058214;28;20114;-83
2022/03/07 06:58:00;;;;;;;78.78;29.48;;;;;;;-1.73;100.00;102468.38;5057518;28;20096;-81
2022/03/07 07:00:26;;;;;;;80.43;27.13;;;;;;;-1.81;100.00;102463.94;5063043;28;20032;-81
2022/03/07 07:02:51;;;;;;;89.18;30.20;;;;;;;-1.60;100.00;102463.00;5061862;28;20041;-83
2022/03/07 07:05:17;;;;;;;86.13;28.45;;;;;;;-1.52;100.00;102466.56;5048234;28;20107;-81
2022/03/07 07:07:44;;;;;;;79.90;28.83;;;;;;;-1.36;100.00;102465.63;5059746;28;20159;-81
2022/03/07 07:10:09;;;;;;;86.72;29.20;;;;;;;-1.22;100.00;102464.66;5055411;28;20083;-81
2022/03/07 07:12:35;;;;;;;88.90;28.65;;;;;;;-0.74;100.00;102462.63;5037874;28;20030;-81
2022/03/07 07:15:01;;;;;;;84.03;29.42;;;;;;;-0.63;100.00;102466.13;5057963;28;20123;-81
2022/03/07 07:17:27;;;;;;;77.20;29.42;;;;;;;-0.37;100.00;102462.38;5059672;28;20175;-81
2022/03/07 07:19:52;;;;;;;81.82;29.40;;;;;;;-0.48;100.00;102475.00;5072112;28;20110;-80
2022/03/07 07:22:18;;;;;;;83.65;30.40;;;;;;;-0.58;100.00;102464.31;5043627;28;20048;-81
2022/03/07 07:24:43;;;;;;;88.15;30.50;;;;;;;-0.60;100.00;102466.13;5090713;28;20048;-83
2022/03/07 07:27:09;;;;;;;78.78;30.58;;;;;;;-0.49;100.00;102473.22;5039192;28;20687;-80
2022/03/07 07:29:35;;;;;;;89.40;32.17;;;;;;;-0.29;100.00;102462.34;5035712;28;20108;-82
2022/03/07 07:32:02;;;;;;;84.15;30.50;;;;;;;-0.09;100.00;102473.81;5064073;28;20036;-82
2022/03/07 07:34:28;;;;;;;71.85;27.92;;;;;;;-0.29;100.00;102455.13;5063570;28;20028;-82
2022/03/07 07:36:54;;;;;;;80.43;27.80;;;;;;;-0.10;100.00;102457.66;5059366;28;20052;-81
2022/03/07 07:39:19;;;;;;;67.43;26.67;;;;;;;0.06;100.00;102455.75;5044633;28;20033;-80
2022/03/07 07:41:45;;;;;;;71.32;28.52;;;;;;;0.18;100.00;102456.53;5034915;28;20502;-81
2022/03/07 07:44:10;;;;;;;64.07;25.75;;;;;;;0.36;100.00;102459.91;5048316;28;20060;-82
2022/03/07 07:46:36;;;;;;;63.88;26.05;;;;;;;0.38;100.00;102460.81;5043810;28;20040;-81
2022/03/07 07:49:02;;;;;;;47.08;22.55;;;;;;;0.53;100.00;102468.72;5035991;28;20079;-80
2022/03/07 07:51:28;;;;;;;52.42;21.77;;;;;;;0.75;100.00;102473.84;5039368;28;20033;-81
2022/03/07 07:53:53;;;;;;;41.00;19.27;;;;;;;0.82;100.00;102463.88;5074519;28;20039;-79
2022/03/07 07:56:18;;;;;;;42.92;18.98;;;;;;;1.01;100.00;102473.53;5056032;28;20033;-80
2022/03/07 07:58:44;;;;;;;35.38;17.80;;;;;;;0.85;100.00;102462.06;5038756;28;20077;-80
2022/03/07 08:01:11;;;;;;;31.67;17.20;;;;;;;1.00;100.00;102470.84;5051919;28;20025;-81
2022/03/07 08:03:37;;;;;;;32.85;17.63;;;;;;;1.18;100.00;102476.00;5070634;28;20381;-82
2022/03/07 08:06:02;;;;;;;27.75;15.65;;;;;;;1.27;100.00;102486.66;5068645;28;20075;-81
2022/03/07 08:08:29;;;;;;;22.42;13.70;;;;;;;1.54;100.00;102481.81;5038050;28;20045;-80
2022/03/07 08:10:54;;;;;;;27.55;13.50;;;;;;;1.94;100.00;102489.25;5040359;28;20034;-81
2022/03/07 08:13:26;;;;;;;22.15;12.85;;;;;;;2.03;100.00;102469.28;5043357;28;20063;-80
2022/03/07 08:16:12;;;;;;;25.52;11.88;;;;;;;2.15;100.00;102493.41;5047933;28;20520;-81
2022/03/07 08:18:38;;;;;;;23.27;12.07;;;;;;;2.04;100.00;102462.97;5037818;28;20484;-82
2022/03/07 08:21:04;;;;;;;20.30;12.02;;;;;;;2.45;100.00;102492.88;5058349;28;20033;-81
2022/03/07 08:23:29;;;;;;;19.23;10.63;;;;;;;2.58;100.00;102486.31;5052910;28;20476;-81
2022/03/07 08:25:55;;;;;;;24.95;10.63;;;;;;;2.63;100.00;102476.28;5047360;28;20086;-81
2022/03/07 08:28:21;;;;;;;14.68;9.95;;;;;;;2.75;100.00;102481.47;5031976;28;20037;-83
2022/03/07 08:30:46;;;;;;;14.73;9.05;;;;;;;3.16;98.95;102480.63;5035205;28;20024;-83
2022/03/07 08:33:12;;;;;;;16.20;9.48;;;;;;;3.25;97.85;102483.13;5050814;28;20025;-82
2022/03/07 08:35:37;;;;;;;16.50;9.20;;;;;;;3.26;97.26;102463.25;5049098;28;20103;-82
2022/03/07 08:38:04;;;;;;;28.73;8.35;;;;;;;3.77;94.56;102481.94;5062643;28;20512;-80
2022/03/07 08:40:30;;;;;;;13.73;7.82;;;;;;;3.45;93.33;102482.69;5045620;28;20048;-80
2022/03/07 08:42:56;;;;;;;9.35;6.95;;;;;;;3.91;90.69;102489.69;5050816;28;20091;-81
2022/03/07 08:45:24;;;;;;;14.13;7.38;;;;;;;3.91;92.46;102486.09;5052483;28;21575;-82
2022/03/07 08:47:50;;;;;;;14.48;7.15;;;;;;;3.74;89.15;102484.72;5071413;28;20067;-83
2022/03/07 08:50:18;;;;;;;11.10;7.05;;;;;;;4.30;88.06;102483.31;5024758;28;20402;-82
2022/03/07 08:52:44;;;;;;;11.38;6.68;;;;;;;4.40;86.80;102488.44;5060553;28;20021;-81
2022/03/07 08:55:10;;;;;;;11.68;7.10;;;;;;;4.82;87.55;102470.09;5067502;28;20124;-81
2022/03/07 08:57:36;;;;;;;8.43;5.22;;;;;;;5.14;79.72;102477.31;5067545;28;20155;-81
2022/03/07 09:00:07;;;;;;;7.95;5.78;;;;;;;4.64;78.89;102472.44;5067057;28;20045;-80
2022/03/07 09:02:33;;;;;;;10.20;5.65;;;;;;;4.85;79.86;102467.31;5036216;28;20179;-81
2022/03/07 09:04:58;;;;;;;8.20;5.47;;;;;;;4.81;77.48;102477.38;5053688;28;20056;-81
2022/03/07 09:07:27;;;;;;;10.48;5.75;;;;;;;5.04;77.96;102464.94;5047881;28;20037;-83
2022/03/07 09:09:52;;;;;;;8.60;5.20;;;;;;;4.98;78.05;102482.28;5050216;28;20029;-82
2022/03/07 09:12:18;;;;;;;12.18;6.03;;;;;;;5.07;78.24;102473.00;5071556;28;20045;-81
2022/03/07 09:14:44;;;;;;;11.77;4.95;;;;;;;5.31;73.92;102458.69;5057809;28;20033;-82
2022/03/07 09:17:09;;;;;;;8.02;4.50;;;;;;;5.47;72.29;102463.63;5094284;28;20040;-83
2022/03/07 09:19:35;;;;;;;6.57;4.65;;;;;;;5.20;74.97;102466.25;5043865;28;20021;-84
2022/03/07 09:22:01;;;;;;;6.25;4.45;;;;;;;5.08;74.18;102453.97;5062014;28;20037;-82
2022/03/07 09:24:26;;;;;;;6.30;4.25;;;;;;;5.44;72.95;102440.13;5052746;28;20116;-83
2022/03/07 09:26:52;;;;;;;5.47;4.10;;;;;;;5.57;71.52;102470.53;5053525;28;20029;-82
2022/03/07 09:29:18;;;;;;;6.82;4.03;;;;;;;5.10;71.44;102448.44;5033154;28;20095;-83
2022/03/07 09:31:44;;;;;;;5.35;4.05;;;;;;;5.47;70.56;102455.47;5058803;28;20083;-84
2022/03/07 09:34:10;;;;;;;6.75;3.70;;;;;;;5.59;71.65;102456.91;5054776;28;20049;-83
2022/03/07 09:36:36;;;;;;;5.65;3.70;;;;;;;5.69;68.49;102462.00;5042135;28;20050;-82
2022/03/07 09:39:03;;;;;;;6.55;3.25;;;;;;;5.87;70.24;102446.00;5035627;28;20029;-81
2022/03/07 09:41:29;;;;;;;7.57;4.22;;;;;;;5.62;71.71;102457.69;5056381;28;20041;-80
2022/03/07 09:43:54;;;;;;;4.47;3.38;;;;;;;5.84;67.94;102448.84;5019454;28;20390;-81
2022/03/07 09:46:19;;;;;;;5.97;3.63;;;;;;;5.82;67.25;102447.97;5056006;28;20037;-83
2022/03/07 09:48:45;;;;;;;6.28;3.30;;;;;;;5.87;67.22;102463.22;5057506;28;20041;-81
2022/03/07 09:51:11;;;;;;;7.00;3.28;;;;;;;5.77;71.31;102447.25;5037065;28;20096;-81
2022/03/07 09:53:37;;;;;;;5.82;3.38;;;;;;;5.75;67.65;102460.00;5052020;28;20049;-80
2022/03/07 09:56:03;;;;;;;8.18;3.70;;;;;;;5.88;67.97;102442.34;5047342;28;20041;-80
2022/03/07 09:58:29;;;;;;;5.93;4.07;;;;;;;5.93;67.64;102445.78;5058614;28;20519;-80
2022/03/07 10:01:05;;;;;;;7.72;3.83;;;;;;;5.98;66.51;102454.72;5053304;28;20405;-79
2022/03/07 10:03:34;;;;;;;7.10;3.50;;;;;;;6.20;69.50;102437.69;5020247;28;20084;-79
2022/03/07 10:05:59;;;;;;;8.95;3.83;;;;;;;6.19;68.29;102427.72;5042290;28;20037;-80
2022/03/07 10:08:27;;;;;;;5.15;2.72;;;;;;;6.42;68.56;102435.06;5055146;28;20086;-79
2022/03/07 10:10:53;;;;;;;6.55;3.47;;;;;;;6.38;68.30;102431.56;5048390;28;20032;-81
2022/03/07 10:13:21;;;;;;;6.78;3.67;;;;;;;6.39;67.58;102433.31;5060729;28;20111;-82
2022/03/07 10:16:01;;;;;;;4.68;2.83;;;;;;;6.75;66.01;102421.16;5070682;28;20029;-81
2022/03/07 10:18:28;;;;;;;5.68;3.63;;;;;;;6.74;66.41;102427.53;5064486;28;20034;-82
2022/03/07 10:20:57;;;;;;;6.55;3.75;;;;;;;6.73;65.20;102429.38;5037375;28;20032;-82
2022/03/07 10:23:28;;;;;;;4.70;3.35;;;;;;;6.59;66.08;102423.56;5037919;28;20029;-83
2022/03/07 10:26:08;;;;;;;6.57;3.17;;;;;;;6.53;65.21;102421.97;5028308;28;20556;-82
2022/03/07 10:28:35;;;;;;;5.70;3.22;;;;;;;6.30;66.71;102422.81;5039061;28;20652;-81
2022/03/07 10:31:12;;;;;;;5.88;3.17;;;;;;;6.69;68.29;102419.56;5056375;28;20385;-81
2022/03/07 10:33:37;;;;;;;5.50;3.42;;;;;;;6.31;66.76;102423.69;5039474;28;20040;-81
2022/03/07 10:36:03;;;;;;;6.82;3.58;;;;;;;6.36;65.59;102413.50;5049539;28;20029;-81
2022/03/07 10:38:29;;;;;;;7.63;3.33;;;;;;;6.72;65.20;102416.72;5085731;28;20064;-81
2022/03/07 10:40:55;;;;;;;7.15;3.17;;;;;;;6.99;64.78;102413.88;5061002;28;20036;-81
2022/03/07 10:43:21;;;;;;;4.35;3.40;;;;;;;6.32;65.50;102406.44;5068392;28;20544;-81
2022/03/07 10:45:52;;;;;;;9.65;3.97;;;;;;;6.55;67.29;102416.47;5050016;28;20029;-82
2022/03/07 10:48:19;;;;;;;8.35;3.53;;;;;;;6.55;66.77;102403.72;5051340;28;20064;-81
2022/03/07 10:51:02;;;;;;;12.55;3.63;;;;;;;6.66;66.53;102414.22;5077092;28;20068;-81
2022/03/07 10:53:27;;;;;;;7.43;3.80;;;;;;;6.37;66.55;102410.75;5056531;28;20045;-82
2022/03/07 10:56:00;;;;;;;6.38;3.55;;;;;;;6.56;68.42;102408.25;5050772;28;20071;-82
2022/03/07 10:58:27;;;;;;;7.38;3.90;;;;;;;6.46;66.19;102392.31;5075520;28;20059;-82
2022/03/07 11:00:59;;;;;;;8.57;4.00;;;;;;;6.92;66.15;102386.00;5065853;28;20049;-82
2022/03/07 11:03:30;;;;;;;9.18;3.88;;;;;;;6.68;66.21;102378.78;5058012;28;20098;-82
2022/03/07 11:06:00;;;;;;;7.25;3.85;;;;;;;6.77;64.02;102379.34;5055975;28;20047;-83